sensor_id;sensor_type;location;lat;lon;timestamp;P1;durP1;ratioP1;P2;durP2;ratioP2
5702;SDS011;2876;51.738;10.050;2023-04-08T00:05:38;5.40;;;3.83;;
5702;SDS011;2876;51.738;10.050;2023-04-08T00:11:39;6.00;;;4.23;;
5702;SDS011;2876;51.738;10.050;2023-04-08T00:17:42;5.67;;;4.20;;
5702;SDS011;2876;51.738;10.050;2023-04-08T00:23:45;8.03;;;5.30;;
5702;SDS011;2876;51.738;10.050;2023-04-08T00:29:47;6.53;;;5.17;;
5702;SDS011;2876;51.738;10.050;2023-04-08T00:35:49;8.60;;;5.40;;
5702;SDS011;2876;51.738;10.050;2023-04-08T00:41:52;6.17;;;4.57;;
5702;SDS011;2876;51.738;10.050;2023-04-08T00:47:54;6.90;;;5.50;;
5702;SDS011;2876;51.738;10.050;2023-04-08T00:53:57;6.73;;;5.50;;
5702;SDS011;2876;51.738;10.050;2023-04-08T01:00:00;6.30;;;4.93;;
5702;SDS011;2876;51.738;10.050;2023-04-08T01:06:13;6.90;;;4.90;;
5702;SDS011;2876;51.738;10.050;2023-04-08T01:12:31;9.87;;;6.23;;
5702;SDS011;2876;51.738;10.050;2023-04-08T01:18:37;8.23;;;6.40;;
5702;SDS011;2876;51.738;10.050;2023-04-08T01:24:40;8.70;;;5.93;;
5702;SDS011;2876;51.738;10.050;2023-04-08T01:30:44;8.57;;;6.73;;
5702;SDS011;2876;51.738;10.050;2023-04-08T01:36:48;8.77;;;6.63;;
5702;SDS011;2876;51.738;10.050;2023-04-08T01:42:51;8.97;;;6.77;;
5702;SDS011;2876;51.738;10.050;2023-04-08T01:48:56;8.80;;;6.70;;
5702;SDS011;2876;51.738;10.050;2023-04-08T01:55:00;8.13;;;6.93;;
5702;SDS011;2876;51.738;10.050;2023-04-08T02:01:02;12.40;;;6.90;;
5702;SDS011;2876;51.738;10.050;2023-04-08T02:07:10;15.43;;;7.53;;
5702;SDS011;2876;51.738;10.050;2023-04-08T02:13:12;11.53;;;7.13;;
5702;SDS011;2876;51.738;10.050;2023-04-08T02:19:16;8.80;;;6.33;;
5702;SDS011;2876;51.738;10.050;2023-04-08T02:25:25;8.13;;;6.60;;
5702;SDS011;2876;51.738;10.050;2023-04-08T02:31:30;8.50;;;7.27;;
5702;SDS011;2876;51.738;10.050;2023-04-08T02:37:34;8.70;;;7.20;;
5702;SDS011;2876;51.738;10.050;2023-04-08T02:43:36;9.27;;;7.30;;
5702;SDS011;2876;51.738;10.050;2023-04-08T02:49:38;11.30;;;8.00;;
5702;SDS011;2876;51.738;10.050;2023-04-08T02:55:40;8.73;;;7.60;;
5702;SDS011;2876;51.738;10.050;2023-04-08T03:01:42;10.33;;;8.80;;
5702;SDS011;2876;51.738;10.050;2023-04-08T03:07:44;13.33;;;8.20;;
5702;SDS011;2876;51.738;10.050;2023-04-08T03:13:46;12.57;;;9.20;;
5702;SDS011;2876;51.738;10.050;2023-04-08T03:19:48;13.10;;;10.03;;
5702;SDS011;2876;51.738;10.050;2023-04-08T03:25:50;10.47;;;8.07;;
5702;SDS011;2876;51.738;10.050;2023-04-08T03:31:52;12.57;;;10.00;;
5702;SDS011;2876;51.738;10.050;2023-04-08T03:37:54;14.13;;;10.73;;
5702;SDS011;2876;51.738;10.050;2023-04-08T03:43:56;19.87;;;13.60;;
5702;SDS011;2876;51.738;10.050;2023-04-08T03:49:58;19.37;;;12.80;;
5702;SDS011;2876;51.738;10.050;2023-04-08T03:56:00;20.77;;;13.50;;
5702;SDS011;2876;51.738;10.050;2023-04-08T04:02:03;24.93;;;13.77;;
5702;SDS011;2876;51.738;10.050;2023-04-08T04:08:06;22.67;;;13.30;;
5702;SDS011;2876;51.738;10.050;2023-04-08T04:14:09;20.97;;;14.13;;
5702;SDS011;2876;51.738;10.050;2023-04-08T04:20:11;24.80;;;16.17;;
5702;SDS011;2876;51.738;10.050;2023-04-08T04:26:13;27.30;;;15.90;;
5702;SDS011;2876;51.738;10.050;2023-04-08T04:32:15;33.13;;;17.87;;
5702;SDS011;2876;51.738;10.050;2023-04-08T04:38:17;35.27;;;18.00;;
5702;SDS011;2876;51.738;10.050;2023-04-08T04:44:19;35.33;;;19.00;;
5702;SDS011;2876;51.738;10.050;2023-04-08T04:50:21;39.63;;;19.17;;
5702;SDS011;2876;51.738;10.050;2023-04-08T04:56:23;31.47;;;17.27;;
5702;SDS011;2876;51.738;10.050;2023-04-08T05:02:26;28.67;;;18.20;;
5702;SDS011;2876;51.738;10.050;2023-04-08T05:08:28;28.70;;;17.00;;
5702;SDS011;2876;51.738;10.050;2023-04-08T05:14:30;44.93;;;23.43;;
5702;SDS011;2876;51.738;10.050;2023-04-08T05:20:33;25.60;;;17.10;;
5702;SDS011;2876;51.738;10.050;2023-04-08T05:26:35;29.83;;;16.77;;
5702;SDS011;2876;51.738;10.050;2023-04-08T05:32:38;27.13;;;17.10;;
5702;SDS011;2876;51.738;10.050;2023-04-08T05:38:40;26.10;;;15.37;;
5702;SDS011;2876;51.738;10.050;2023-04-08T05:44:44;23.43;;;14.77;;
5702;SDS011;2876;51.738;10.050;2023-04-08T05:50:46;21.50;;;13.43;;
5702;SDS011;2876;51.738;10.050;2023-04-08T05:56:48;25.60;;;14.73;;
5702;SDS011;2876;51.738;10.050;2023-04-08T06:02:50;19.77;;;13.03;;
5702;SDS011;2876;51.738;10.050;2023-04-08T06:08:52;20.83;;;12.93;;
5702;SDS011;2876;51.738;10.050;2023-04-08T06:14:54;19.20;;;12.17;;
5702;SDS011;2876;51.738;10.050;2023-04-08T06:20:56;16.53;;;11.47;;
5702;SDS011;2876;51.738;10.050;2023-04-08T06:26:59;19.03;;;11.60;;
5702;SDS011;2876;51.738;10.050;2023-04-08T06:33:01;16.77;;;9.80;;
5702;SDS011;2876;51.738;10.050;2023-04-08T06:39:03;18.53;;;9.37;;
5702;SDS011;2876;51.738;10.050;2023-04-08T06:45:05;15.93;;;9.07;;
5702;SDS011;2876;51.738;10.050;2023-04-08T06:51:08;16.23;;;10.40;;
5702;SDS011;2876;51.738;10.050;2023-04-08T06:57:10;20.63;;;10.67;;
5702;SDS011;2876;51.738;10.050;2023-04-08T07:03:12;17.90;;;11.43;;
5702;SDS011;2876;51.738;10.050;2023-04-08T07:09:14;20.00;;;13.70;;
5702;SDS011;2876;51.738;10.050;2023-04-08T07:15:16;20.90;;;10.87;;
5702;SDS011;2876;51.738;10.050;2023-04-08T07:21:18;17.37;;;10.20;;
5702;SDS011;2876;51.738;10.050;2023-04-08T07:27:20;19.97;;;9.87;;
5702;SDS011;2876;51.738;10.050;2023-04-08T07:33:22;15.17;;;9.20;;
5702;SDS011;2876;51.738;10.050;2023-04-08T07:39:24;15.27;;;10.87;;
5702;SDS011;2876;51.738;10.050;2023-04-08T07:45:26;19.23;;;11.60;;
5702;SDS011;2876;51.738;10.050;2023-04-08T07:51:28;12.20;;;8.90;;
5702;SDS011;2876;51.738;10.050;2023-04-08T07:57:30;16.33;;;10.30;;
5702;SDS011;2876;51.738;10.050;2023-04-08T08:03:32;16.53;;;9.27;;
5702;SDS011;2876;51.738;10.050;2023-04-08T08:09:34;15.87;;;10.47;;
5702;SDS011;2876;51.738;10.050;2023-04-08T08:15:36;19.23;;;10.50;;
5702;SDS011;2876;51.738;10.050;2023-04-08T08:21:38;15.40;;;9.37;;
5702;SDS011;2876;51.738;10.050;2023-04-08T08:27:40;15.63;;;9.50;;
5702;SDS011;2876;51.738;10.050;2023-04-08T08:33:42;17.43;;;9.80;;
5702;SDS011;2876;51.738;10.050;2023-04-08T08:39:44;14.90;;;8.50;;
5702;SDS011;2876;51.738;10.050;2023-04-08T08:45:46;14.87;;;9.57;;
5702;SDS011;2876;51.738;10.050;2023-04-08T08:51:48;13.93;;;9.43;;
5702;SDS011;2876;51.738;10.050;2023-04-08T08:57:52;13.80;;;8.80;;
5702;SDS011;2876;51.738;10.050;2023-04-08T09:10:25;14.87;;;9.00;;
5702;SDS011;2876;51.738;10.050;2023-04-08T09:16:29;14.63;;;9.10;;
5702;SDS011;2876;51.738;10.050;2023-04-08T09:22:32;11.73;;;8.30;;
5702;SDS011;2876;51.738;10.050;2023-04-08T09:28:34;16.10;;;10.00;;
5702;SDS011;2876;51.738;10.050;2023-04-08T09:34:37;14.53;;;7.40;;
5702;SDS011;2876;51.738;10.050;2023-04-08T09:40:40;9.70;;;6.70;;
5702;SDS011;2876;51.738;10.050;2023-04-08T09:53:09;11.90;;;7.40;;
5702;SDS011;2876;51.738;10.050;2023-04-08T09:59:21;14.77;;;8.80;;
5702;SDS011;2876;51.738;10.050;2023-04-08T10:05:28;26.90;;;14.07;;
5702;SDS011;2876;51.738;10.050;2023-04-08T10:11:32;12.37;;;7.93;;
5702;SDS011;2876;51.738;10.050;2023-04-08T10:17:35;12.70;;;7.63;;
5702;SDS011;2876;51.738;10.050;2023-04-08T10:23:53;17.77;;;10.07;;
5702;SDS011;2876;51.738;10.050;2023-04-08T10:29:59;12.30;;;8.47;;
5702;SDS011;2876;51.738;10.050;2023-04-08T10:42:12;14.60;;;8.23;;
5702;SDS011;2876;51.738;10.050;2023-04-08T10:48:17;11.90;;;7.20;;
5702;SDS011;2876;51.738;10.050;2023-04-08T10:54:20;10.90;;;7.23;;
5702;SDS011;2876;51.738;10.050;2023-04-08T11:00:41;12.00;;;7.50;;
5702;SDS011;2876;51.738;10.050;2023-04-08T11:06:43;15.83;;;8.40;;
5702;SDS011;2876;51.738;10.050;2023-04-08T11:12:47;16.30;;;9.43;;
5702;SDS011;2876;51.738;10.050;2023-04-08T11:18:50;11.43;;;7.20;;
5702;SDS011;2876;51.738;10.050;2023-04-08T11:24:54;11.47;;;8.00;;
5702;SDS011;2876;51.738;10.050;2023-04-08T11:30:57;11.20;;;7.80;;
5702;SDS011;2876;51.738;10.050;2023-04-08T11:37:00;15.67;;;6.70;;
5702;SDS011;2876;51.738;10.050;2023-04-08T11:43:11;10.43;;;7.63;;
5702;SDS011;2876;51.738;10.050;2023-04-08T11:49:17;11.67;;;7.80;;
5702;SDS011;2876;51.738;10.050;2023-04-08T11:55:23;10.63;;;6.80;;
5702;SDS011;2876;51.738;10.050;2023-04-08T12:01:30;17.27;;;7.90;;
5702;SDS011;2876;51.738;10.050;2023-04-08T12:07:32;10.87;;;6.90;;
5702;SDS011;2876;51.738;10.050;2023-04-08T12:13:34;8.77;;;6.13;;
5702;SDS011;2876;51.738;10.050;2023-04-08T12:19:36;18.60;;;10.20;;
5702;SDS011;2876;51.738;10.050;2023-04-08T12:25:38;21.50;;;11.73;;
5702;SDS011;2876;51.738;10.050;2023-04-08T12:31:40;18.30;;;11.27;;
5702;SDS011;2876;51.738;10.050;2023-04-08T12:37:42;13.70;;;8.60;;
5702;SDS011;2876;51.738;10.050;2023-04-08T12:43:44;10.23;;;7.30;;
5702;SDS011;2876;51.738;10.050;2023-04-08T12:49:46;10.53;;;6.90;;
5702;SDS011;2876;51.738;10.050;2023-04-08T12:55:50;12.10;;;7.77;;
5702;SDS011;2876;51.738;10.050;2023-04-08T13:01:55;11.37;;;7.80;;
5702;SDS011;2876;51.738;10.050;2023-04-08T13:07:57;9.23;;;7.37;;
5702;SDS011;2876;51.738;10.050;2023-04-08T13:13:59;9.07;;;6.70;;
5702;SDS011;2876;51.738;10.050;2023-04-08T13:20:01;8.63;;;7.07;;
5702;SDS011;2876;51.738;10.050;2023-04-08T13:26:03;11.83;;;7.00;;
5702;SDS011;2876;51.738;10.050;2023-04-08T13:32:05;14.90;;;7.17;;
5702;SDS011;2876;51.738;10.050;2023-04-08T13:38:07;12.40;;;9.30;;
5702;SDS011;2876;51.738;10.050;2023-04-08T13:44:09;17.10;;;10.30;;
5702;SDS011;2876;51.738;10.050;2023-04-08T13:50:11;34.47;;;27.27;;
5702;SDS011;2876;51.738;10.050;2023-04-08T13:56:13;36.73;;;19.50;;
5702;SDS011;2876;51.738;10.050;2023-04-08T14:02:15;17.70;;;12.17;;
5702;SDS011;2876;51.738;10.050;2023-04-08T14:08:17;18.07;;;14.40;;
5702;SDS011;2876;51.738;10.050;2023-04-08T14:14:25;39.23;;;28.93;;
5702;SDS011;2876;51.738;10.050;2023-04-08T14:20:27;10.00;;;7.40;;
5702;SDS011;2876;51.738;10.050;2023-04-08T14:26:30;13.63;;;9.63;;
5702;SDS011;2876;51.738;10.050;2023-04-08T14:32:35;12.63;;;8.07;;
5702;SDS011;2876;51.738;10.050;2023-04-08T14:38:38;12.20;;;7.97;;
5702;SDS011;2876;51.738;10.050;2023-04-08T14:44:40;9.57;;;7.00;;
5702;SDS011;2876;51.738;10.050;2023-04-08T14:50:42;8.90;;;6.73;;
5702;SDS011;2876;51.738;10.050;2023-04-08T14:56:45;13.10;;;7.80;;
5702;SDS011;2876;51.738;10.050;2023-04-08T15:02:47;12.43;;;8.23;;
5702;SDS011;2876;51.738;10.050;2023-04-08T15:08:49;11.00;;;8.10;;
5702;SDS011;2876;51.738;10.050;2023-04-08T15:14:51;8.37;;;6.57;;
5702;SDS011;2876;51.738;10.050;2023-04-08T15:20:53;15.20;;;9.10;;
5702;SDS011;2876;51.738;10.050;2023-04-08T15:26:55;11.20;;;8.37;;
5702;SDS011;2876;51.738;10.050;2023-04-08T15:32:57;12.93;;;8.37;;
5702;SDS011;2876;51.738;10.050;2023-04-08T15:38:59;15.27;;;9.90;;
5702;SDS011;2876;51.738;10.050;2023-04-08T15:45:02;11.10;;;8.30;;
5702;SDS011;2876;51.738;10.050;2023-04-08T15:51:07;12.07;;;8.10;;
5702;SDS011;2876;51.738;10.050;2023-04-08T15:57:11;11.87;;;8.23;;
5702;SDS011;2876;51.738;10.050;2023-04-08T16:03:14;9.33;;;6.73;;
5702;SDS011;2876;51.738;10.050;2023-04-08T16:09:17;9.10;;;5.60;;
5702;SDS011;2876;51.738;10.050;2023-04-08T16:15:22;7.77;;;6.00;;
5702;SDS011;2876;51.738;10.050;2023-04-08T16:21:24;10.67;;;6.87;;
5702;SDS011;2876;51.738;10.050;2023-04-08T16:27:26;10.90;;;7.20;;
5702;SDS011;2876;51.738;10.050;2023-04-08T16:33:28;10.40;;;7.53;;
5702;SDS011;2876;51.738;10.050;2023-04-08T16:39:31;11.30;;;8.57;;
5702;SDS011;2876;51.738;10.050;2023-04-08T16:45:33;14.33;;;8.63;;
5702;SDS011;2876;51.738;10.050;2023-04-08T16:51:35;13.43;;;7.90;;
5702;SDS011;2876;51.738;10.050;2023-04-08T16:57:37;14.73;;;8.93;;
5702;SDS011;2876;51.738;10.050;2023-04-08T17:03:39;15.30;;;9.10;;
5702;SDS011;2876;51.738;10.050;2023-04-08T17:09:41;14.53;;;9.37;;
5702;SDS011;2876;51.738;10.050;2023-04-08T17:15:43;13.30;;;8.80;;
5702;SDS011;2876;51.738;10.050;2023-04-08T17:21:45;12.67;;;8.50;;
5702;SDS011;2876;51.738;10.050;2023-04-08T17:27:47;13.07;;;9.27;;
5702;SDS011;2876;51.738;10.050;2023-04-08T17:33:49;13.43;;;8.73;;
5702;SDS011;2876;51.738;10.050;2023-04-08T17:39:51;16.03;;;9.90;;
5702;SDS011;2876;51.738;10.050;2023-04-08T17:45:57;14.03;;;9.70;;
5702;SDS011;2876;51.738;10.050;2023-04-08T17:52:02;19.60;;;11.10;;
5702;SDS011;2876;51.738;10.050;2023-04-08T17:58:06;24.97;;;15.37;;
5702;SDS011;2876;51.738;10.050;2023-04-08T18:04:08;20.20;;;12.27;;
5702;SDS011;2876;51.738;10.050;2023-04-08T18:10:10;20.97;;;12.80;;
5702;SDS011;2876;51.738;10.050;2023-04-08T18:16:17;16.57;;;10.67;;
5702;SDS011;2876;51.738;10.050;2023-04-08T18:22:20;23.13;;;15.67;;
5702;SDS011;2876;51.738;10.050;2023-04-08T18:28:22;27.30;;;15.50;;
5702;SDS011;2876;51.738;10.050;2023-04-08T18:34:24;30.70;;;16.50;;
5702;SDS011;2876;51.738;10.050;2023-04-08T18:40:27;36.30;;;18.33;;
5702;SDS011;2876;51.738;10.050;2023-04-08T18:46:29;72.97;;;35.53;;
5702;SDS011;2876;51.738;10.050;2023-04-08T18:52:32;91.43;;;44.50;;
5702;SDS011;2876;51.738;10.050;2023-04-08T18:58:34;101.70;;;51.37;;
5702;SDS011;2876;51.738;10.050;2023-04-08T19:04:37;94.30;;;45.33;;
5702;SDS011;2876;51.738;10.050;2023-04-08T19:10:38;70.20;;;34.60;;
5702;SDS011;2876;51.738;10.050;2023-04-08T19:16:40;54.67;;;30.63;;
5702;SDS011;2876;51.738;10.050;2023-04-08T19:22:43;58.33;;;28.33;;
5702;SDS011;2876;51.738;10.050;2023-04-08T19:28:45;51.27;;;27.73;;
5702;SDS011;2876;51.738;10.050;2023-04-08T19:34:47;49.80;;;28.73;;
5702;SDS011;2876;51.738;10.050;2023-04-08T19:40:49;46.87;;;25.17;;
5702;SDS011;2876;51.738;10.050;2023-04-08T19:46:51;44.37;;;23.67;;
5702;SDS011;2876;51.738;10.050;2023-04-08T19:52:53;46.00;;;26.77;;
5702;SDS011;2876;51.738;10.050;2023-04-08T19:58:55;67.67;;;33.77;;
5702;SDS011;2876;51.738;10.050;2023-04-08T20:04:58;86.20;;;44.00;;
5702;SDS011;2876;51.738;10.050;2023-04-08T20:11:02;87.73;;;42.57;;
5702;SDS011;2876;51.738;10.050;2023-04-08T20:17:05;91.03;;;42.30;;
5702;SDS011;2876;51.738;10.050;2023-04-08T20:23:06;68.77;;;37.43;;
5702;SDS011;2876;51.738;10.050;2023-04-08T20:29:08;67.40;;;36.00;;
5702;SDS011;2876;51.738;10.050;2023-04-08T20:35:10;64.73;;;35.77;;
5702;SDS011;2876;51.738;10.050;2023-04-08T20:41:17;61.40;;;34.63;;
5702;SDS011;2876;51.738;10.050;2023-04-08T20:47:20;61.70;;;33.37;;
5702;SDS011;2876;51.738;10.050;2023-04-08T20:53:22;68.40;;;32.37;;
5702;SDS011;2876;51.738;10.050;2023-04-08T20:59:24;62.50;;;33.87;;
5702;SDS011;2876;51.738;10.050;2023-04-08T21:05:27;58.77;;;30.50;;
5702;SDS011;2876;51.738;10.050;2023-04-08T21:11:29;64.37;;;31.97;;
5702;SDS011;2876;51.738;10.050;2023-04-08T21:17:31;55.23;;;29.33;;
5702;SDS011;2876;51.738;10.050;2023-04-08T21:23:33;58.67;;;29.80;;
5702;SDS011;2876;51.738;10.050;2023-04-08T21:29:35;58.43;;;30.10;;
5702;SDS011;2876;51.738;10.050;2023-04-08T21:35:37;61.77;;;30.20;;
5702;SDS011;2876;51.738;10.050;2023-04-08T21:41:39;62.77;;;32.77;;
5702;SDS011;2876;51.738;10.050;2023-04-08T21:47:41;56.60;;;28.10;;
5702;SDS011;2876;51.738;10.050;2023-04-08T21:53:43;50.63;;;28.67;;
5702;SDS011;2876;51.738;10.050;2023-04-08T21:59:45;53.40;;;27.40;;
5702;SDS011;2876;51.738;10.050;2023-04-08T22:05:48;46.57;;;24.70;;
5702;SDS011;2876;51.738;10.050;2023-04-08T22:11:50;48.83;;;24.10;;
5702;SDS011;2876;51.738;10.050;2023-04-08T22:17:52;44.43;;;25.50;;
5702;SDS011;2876;51.738;10.050;2023-04-08T22:23:54;42.53;;;24.70;;
5702;SDS011;2876;51.738;10.050;2023-04-08T22:29:55;40.10;;;22.03;;
5702;SDS011;2876;51.738;10.050;2023-04-08T22:35:57;36.93;;;20.97;;
5702;SDS011;2876;51.738;10.050;2023-04-08T22:41:59;51.60;;;25.97;;
5702;SDS011;2876;51.738;10.050;2023-04-08T22:48:01;37.63;;;21.90;;
5702;SDS011;2876;51.738;10.050;2023-04-08T22:54:03;46.87;;;26.07;;
5702;SDS011;2876;51.738;10.050;2023-04-08T23:00:06;47.13;;;24.80;;
5702;SDS011;2876;51.738;10.050;2023-04-08T23:06:09;53.07;;;27.67;;
5702;SDS011;2876;51.738;10.050;2023-04-08T23:12:11;140.13;;;63.87;;
5702;SDS011;2876;51.738;10.050;2023-04-08T23:18:13;55.30;;;29.07;;
5702;SDS011;2876;51.738;10.050;2023-04-08T23:24:15;47.93;;;25.67;;
5702;SDS011;2876;51.738;10.050;2023-04-08T23:30:17;54.27;;;28.67;;
5702;SDS011;2876;51.738;10.050;2023-04-08T23:36:19;57.67;;;29.40;;
5702;SDS011;2876;51.738;10.050;2023-04-08T23:42:21;46.07;;;26.77;;
5702;SDS011;2876;51.738;10.050;2023-04-08T23:48:27;49.20;;;27.60;;
5702;SDS011;2876;51.738;10.050;2023-04-08T23:54:29;47.20;;;28.33;;
